createdAt,value
2022-10-06T00:00:16.584Z,101287.69
2022-10-06T00:02:47.172Z,101296.59
2022-10-06T00:05:16.191Z,101293.81
2022-10-06T00:07:45.351Z,101296.47
2022-10-06T00:10:14.545Z,101314.88
2022-10-06T00:12:44.458Z,101307.47
2022-10-06T00:15:16.111Z,101316.69
2022-10-06T00:17:46.600Z,101333.19
2022-10-06T00:20:15.951Z,101320.97
2022-10-06T00:22:47.519Z,101318.91
2022-10-06T00:25:20.400Z,101332.03
2022-10-06T00:27:51.865Z,101332.34
2022-10-06T00:30:23.171Z,101329.41
2022-10-06T00:32:56.033Z,101347.34
2022-10-06T00:35:26.390Z,101339.19
2022-10-06T00:37:55.947Z,101354.50
2022-10-06T00:40:24.965Z,101345.72
2022-10-06T00:42:56.868Z,101354.94
2022-10-06T00:45:32.759Z,101355.19
2022-10-06T00:48:08.402Z,101351.88
2022-10-06T00:50:37.829Z,101366.34
2022-10-06T00:53:07.281Z,101365.09
2022-10-06T00:55:36.341Z,101374.97
2022-10-06T00:58:07.350Z,101365.25
2022-10-06T01:00:36.668Z,101379.44
2022-10-06T01:03:11.810Z,101380.41
2022-10-06T01:05:46.561Z,101392.38
2022-10-06T01:08:16.163Z,101383.75
2022-10-06T01:10:45.327Z,101396.69
2022-10-06T01:13:15.343Z,101397.78
2022-10-06T01:15:50.909Z,101402.81
2022-10-06T01:18:27.101Z,101399.22
2022-10-06T01:21:03.215Z,101403.63
2022-10-06T01:23:36.020Z,101413.34
2022-10-06T01:26:09.362Z,101404.88
2022-10-06T01:28:39.130Z,101414.06
2022-10-06T01:31:10.160Z,101424.19
2022-10-06T01:33:39.209Z,101434.59
2022-10-06T01:36:08.706Z,101428.75
2022-10-06T01:38:39.103Z,101435.41
2022-10-06T01:41:08.140Z,101433.47
2022-10-06T01:43:37.869Z,101431.13
2022-10-06T01:46:07.912Z,101441.63
2022-10-06T01:48:38.081Z,101443.28
2022-10-06T01:51:09.158Z,101454.94
2022-10-06T01:53:40.303Z,101451.19
2022-10-06T01:56:09.312Z,101453.25
2022-10-06T01:58:38.294Z,101468.50
2022-10-06T02:01:09.678Z,101471.97
2022-10-06T02:03:40.433Z,101492.91
2022-10-06T02:06:11.721Z,101469.88
2022-10-06T02:08:42.125Z,101479.72
2022-10-06T02:11:12.437Z,101492.09
2022-10-06T02:13:45.132Z,101495.53
2022-10-06T02:16:14.755Z,101494.81
2022-10-06T02:18:45.599Z,101504.03
2022-10-06T02:21:19.991Z,101500.75
2022-10-06T02:23:50.567Z,101516.47
2022-10-06T02:26:19.992Z,101519.66
2022-10-06T02:28:50.783Z,101521.22
2022-10-06T02:31:23.819Z,101524.38
2022-10-06T02:33:54.465Z,101537.47
2022-10-06T02:36:24.602Z,101536.94
2022-10-06T02:38:55.066Z,101546.00
2022-10-06T02:41:24.055Z,101544.41
2022-10-06T02:43:53.619Z,101551.09
2022-10-06T02:46:23.947Z,101566.78
2022-10-06T02:48:54.536Z,101556.09
2022-10-06T02:51:25.277Z,101576.88
2022-10-06T02:53:56.257Z,101565.91
2022-10-06T02:56:26.526Z,101575.09
2022-10-06T02:58:55.633Z,101587.16
2022-10-06T03:01:31.017Z,101596.03
2022-10-06T03:04:03.221Z,101591.84
2022-10-06T03:06:32.749Z,101597.16
2022-10-06T03:09:29.187Z,101602.66
2022-10-06T03:11:58.980Z,101614.91
2022-10-06T03:14:40.744Z,101617.09
2022-10-06T03:17:10.761Z,101620.47
2022-10-06T03:19:46.118Z,101620.75
2022-10-06T03:22:16.123Z,101635.66
2022-10-06T03:24:52.883Z,101624.97
2022-10-06T03:27:23.581Z,101639.34
2022-10-06T03:29:55.669Z,101638.59
2022-10-06T03:32:26.707Z,101655.84
2022-10-06T03:34:55.655Z,101640.41
2022-10-06T03:37:24.801Z,101649.53
2022-10-06T03:39:55.123Z,101652.81
2022-10-06T03:42:24.183Z,101646.22
2022-10-06T03:44:54.364Z,101667.91
2022-10-06T03:47:23.313Z,101673.88
2022-10-06T03:49:52.292Z,101679.28
2022-10-06T03:52:25.731Z,101673.75
2022-10-06T03:54:56.654Z,101676.06
2022-10-06T03:57:25.639Z,101683.28
2022-10-06T03:59:59.148Z,101688.28
2022-10-06T04:02:28.162Z,101695.22
2022-10-06T04:04:57.234Z,101699.75
2022-10-06T04:07:26.531Z,101702.75
2022-10-06T04:09:57.038Z,101715.09
2022-10-06T04:12:26.038Z,101720.75
2022-10-06T04:14:59.860Z,101708.16
2022-10-06T04:17:29.507Z,101715.84
2022-10-06T04:19:58.513Z,101730.06
2022-10-06T04:22:27.682Z,101736.19
2022-10-06T04:24:58.035Z,101726.59
2022-10-06T04:27:29.757Z,101735.34
2022-10-06T04:30:04.007Z,101732.47
2022-10-06T04:32:33.748Z,101745.88
2022-10-06T04:35:03.017Z,101746.47
2022-10-06T04:37:32.163Z,101747.91
2022-10-06T04:40:03.140Z,101747.41
2022-10-06T04:42:35.216Z,101759.88
2022-10-06T04:45:07.614Z,101764.53
2022-10-06T04:47:37.982Z,101771.94
2022-10-06T04:50:07.775Z,101780.66
2022-10-06T04:52:36.848Z,101779.69
2022-10-06T04:55:08.317Z,101791.53
2022-10-06T04:57:37.504Z,101799.88
2022-10-06T05:00:26.755Z,101798.09
2022-10-06T05:02:56.876Z,101810.44
2022-10-06T05:05:25.896Z,101818.19
2022-10-06T05:07:56.781Z,101818.69
2022-10-06T05:10:28.453Z,101822.84
2022-10-06T05:12:57.722Z,101824.47
2022-10-06T05:15:28.082Z,101832.97
2022-10-06T05:17:57.198Z,101849.19
2022-10-06T05:20:26.226Z,101839.91
2022-10-06T05:22:55.682Z,101841.47
2022-10-06T05:25:26.197Z,101859.38
2022-10-06T05:27:55.532Z,101862.53
2022-10-06T05:30:24.601Z,101866.44
2022-10-06T05:32:53.640Z,101870.72
2022-10-06T05:35:22.738Z,101871.75
2022-10-06T05:37:51.730Z,101878.97
2022-10-06T05:40:20.737Z,101892.19
2022-10-06T05:42:51.298Z,101892.06
2022-10-06T05:45:20.291Z,101894.66
2022-10-06T05:47:49.248Z,101893.81
2022-10-06T05:50:20.627Z,101904.88
2022-10-06T05:52:49.923Z,101912.53
2022-10-06T05:55:18.875Z,101917.06
2022-10-06T05:57:48.156Z,101913.75
2022-10-06T06:00:18.572Z,101928.09
2022-10-06T06:02:48.614Z,101942.09
2022-10-06T06:05:17.720Z,101943.16
2022-10-06T06:07:46.916Z,101943.16
2022-10-06T06:10:15.933Z,101942.59
2022-10-06T06:12:47.663Z,101943.06
2022-10-06T06:15:57.518Z,101963.31
2022-10-06T06:18:26.986Z,101976.69
2022-10-06T06:20:59.797Z,101974.91
2022-10-06T06:23:34.476Z,101971.00
2022-10-06T06:26:05.065Z,101985.38
2022-10-06T06:28:37.052Z,101987.78
2022-10-06T06:31:09.429Z,101988.25
2022-10-06T06:33:39.791Z,101996.41
2022-10-06T06:36:14.873Z,102013.38
2022-10-06T06:38:47.073Z,102023.69
2022-10-06T06:41:17.957Z,102017.34
2022-10-06T06:43:48.026Z,102021.19
2022-10-06T06:46:32.433Z,102024.28
2022-10-06T06:49:06.570Z,102025.47
2022-10-06T06:51:49.790Z,102035.31
2022-10-06T06:54:21.157Z,102035.38
2022-10-06T06:56:55.217Z,102038.63
2022-10-06T06:59:25.266Z,102047.97
2022-10-06T07:01:58.165Z,102045.22
2022-10-06T07:04:29.140Z,102063.31
2022-10-06T07:06:58.447Z,102059.09
2022-10-06T07:09:31.086Z,102074.81
2022-10-06T07:12:06.461Z,102074.34
2022-10-06T07:14:35.414Z,102068.88
2022-10-06T07:17:23.853Z,102081.06
2022-10-06T07:20:10.375Z,102071.38
2022-10-06T07:22:56.811Z,102090.66
2022-10-06T07:25:27.715Z,102088.28
2022-10-06T07:27:59.626Z,102098.38
2022-10-06T07:30:34.149Z,102102.91
2022-10-06T07:33:10.686Z,102107.00
2022-10-06T07:35:41.307Z,102110.84
2022-10-06T07:38:10.282Z,102112.63
2022-10-06T07:40:50.559Z,102124.28
2022-10-06T07:43:32.491Z,102109.56
2022-10-06T07:46:02.435Z,102134.59
2022-10-06T07:48:36.995Z,102137.66
2022-10-06T07:51:13.187Z,102140.78
2022-10-06T07:53:44.693Z,102145.56
2022-10-06T07:56:22.531Z,102151.72
2022-10-06T07:58:55.895Z,102165.13
2022-10-06T08:01:26.759Z,102168.03
2022-10-06T08:03:57.693Z,102162.50
2022-10-06T08:06:26.684Z,102168.03
2022-10-06T08:08:56.528Z,102165.03
2022-10-06T08:11:25.593Z,102171.06
2022-10-06T08:13:54.517Z,102174.91
2022-10-06T08:16:25.765Z,102189.78
2022-10-06T08:18:57.726Z,102186.56
2022-10-06T08:21:29.608Z,102194.38
2022-10-06T08:23:59.956Z,102199.72
2022-10-06T08:26:30.935Z,102204.41
2022-10-06T08:29:02.116Z,102212.91
2022-10-06T08:31:32.481Z,102214.44
2022-10-06T08:34:02.908Z,102224.22
2022-10-06T08:36:32.790Z,102225.09
2022-10-06T08:39:01.947Z,102238.78
2022-10-06T08:41:40.452Z,102234.19
2022-10-06T08:44:20.348Z,102244.19
2022-10-06T08:46:55.084Z,102248.44
2022-10-06T08:49:28.299Z,102233.53
2022-10-06T08:52:07.609Z,102245.78
2022-10-06T08:54:42.273Z,102238.06
2022-10-06T08:57:20.217Z,102238.25
2022-10-06T08:59:53.336Z,102243.94
2022-10-06T09:02:29.240Z,102257.78
2022-10-06T09:05:02.365Z,102252.47
2022-10-06T09:07:42.320Z,102259.16
2022-10-06T09:10:29.614Z,102265.75
2022-10-06T09:13:04.775Z,102280.78
2022-10-06T09:15:40.923Z,102282.63
2022-10-06T09:18:17.019Z,102291.06
2022-10-06T09:20:53.003Z,102277.00
2022-10-06T09:23:42.592Z,102281.97
2022-10-06T09:26:14.031Z,102300.72
2022-10-06T09:28:46.425Z,102301.13
2022-10-06T09:31:22.342Z,102306.25
2022-10-06T09:33:54.751Z,102301.72
2022-10-06T09:36:25.090Z,102305.25
2022-10-06T09:38:55.495Z,102309.25
2022-10-06T09:41:27.926Z,102305.22
2022-10-06T09:43:59.682Z,102316.97
2022-10-06T09:46:32.646Z,102316.91
2022-10-06T09:49:16.670Z,102317.56
2022-10-06T09:52:10.288Z,102326.75
2022-10-06T09:54:41.839Z,102324.00
2022-10-06T09:57:16.017Z,102336.00
2022-10-06T09:59:47.667Z,102328.66
2022-10-06T10:02:31.436Z,102327.16
2022-10-06T10:05:00.547Z,102332.84
2022-10-06T10:07:33.072Z,102346.94
2022-10-06T10:10:21.858Z,102342.22
2022-10-06T10:12:52.119Z,102349.94
2022-10-06T10:15:31.429Z,102324.31
2022-10-06T10:18:04.045Z,102349.44
2022-10-06T10:20:36.523Z,102350.91
2022-10-06T10:23:28.662Z,102350.59
2022-10-06T10:26:14.210Z,102357.91
2022-10-06T10:29:04.694Z,102357.50
2022-10-06T10:31:48.147Z,102359.28
2022-10-06T10:34:38.138Z,102364.50
2022-10-06T10:37:13.237Z,102368.66
2022-10-06T10:39:49.549Z,102379.03
2022-10-06T10:42:23.082Z,102387.06
2022-10-06T10:44:58.255Z,102384.34
2022-10-06T10:47:32.275Z,102387.38
2022-10-06T10:50:07.989Z,102382.88
2022-10-06T10:52:42.366Z,102396.03
2022-10-06T10:55:23.214Z,102386.00
2022-10-06T10:57:54.033Z,102401.13
2022-10-06T11:00:28.081Z,102400.41
2022-10-06T11:02:59.844Z,102393.09
2022-10-06T11:05:40.073Z,102392.91
2022-10-06T11:08:14.897Z,102388.81
2022-10-06T11:10:50.781Z,102393.03
2022-10-06T11:13:27.823Z,102385.56
2022-10-06T11:16:12.344Z,102408.19
2022-10-06T11:18:55.646Z,102402.09
2022-10-06T11:21:28.229Z,102402.13
2022-10-06T11:24:02.131Z,102409.31
2022-10-06T11:26:49.030Z,102405.78
2022-10-06T11:29:28.171Z,102405.84
2022-10-06T11:32:05.511Z,102419.78
2022-10-06T11:34:34.607Z,102399.47
2022-10-06T11:37:13.040Z,102408.81
2022-10-06T11:39:50.938Z,102426.16
2022-10-06T11:45:05.976Z,102426.03
2022-10-06T11:47:44.540Z,102404.91
2022-10-06T11:50:35.173Z,102417.06
2022-10-06T11:53:05.626Z,102420.34
2022-10-06T11:55:34.880Z,102430.22
2022-10-06T12:01:05.480Z,102431.41
2022-10-06T12:04:13.404Z,102433.53
2022-10-06T12:07:10.780Z,102449.13
2022-10-06T12:09:51.706Z,102446.44
2022-10-06T12:12:47.710Z,102454.63
2022-10-06T12:19:03.398Z,102448.00
2022-10-06T12:21:43.172Z,102456.69
2022-10-06T12:24:41.276Z,102450.56
2022-10-06T12:27:32.175Z,102444.41
2022-10-06T12:30:06.447Z,102449.47
2022-10-06T12:32:50.294Z,102450.06
2022-10-06T12:35:34.792Z,102450.66
2022-10-06T12:38:06.033Z,102459.78
2022-10-06T12:40:55.186Z,102446.81
2022-10-06T12:43:58.425Z,102450.56
2022-10-06T12:46:49.274Z,102435.06
2022-10-06T12:49:44.083Z,102451.03
2022-10-06T12:52:48.006Z,102439.50
2022-10-06T12:55:42.353Z,102446.34
2022-10-06T12:58:19.573Z,102446.47
2022-10-06T13:00:49.256Z,102443.63
2022-10-06T13:03:20.541Z,102438.72
2022-10-06T13:05:57.033Z,102442.28
2022-10-06T13:08:28.329Z,102437.75
2022-10-06T13:11:14.449Z,102442.69
2022-10-06T13:13:48.763Z,102446.00
2022-10-06T13:16:20.459Z,102442.25
2022-10-06T13:18:49.975Z,102453.28
2022-10-06T13:21:20.246Z,102447.59
2022-10-06T13:23:49.893Z,102450.78
2022-10-06T13:26:23.283Z,102437.97
2022-10-06T13:28:53.562Z,102445.00
2022-10-06T13:31:26.670Z,102448.28
2022-10-06T13:33:59.555Z,102444.66
2022-10-06T13:36:32.202Z,102449.03
2022-10-06T13:39:03.840Z,102441.94
2022-10-06T13:41:36.026Z,102449.16
2022-10-06T13:44:19.736Z,102449.97
2022-10-06T13:46:52.461Z,102447.97
2022-10-06T13:49:26.089Z,102444.75
2022-10-06T13:51:59.715Z,102449.53
2022-10-06T13:54:34.881Z,102449.69
2022-10-06T13:57:03.954Z,102447.16
2022-10-06T13:59:38.300Z,102453.31
2022-10-06T14:02:24.590Z,102458.91
2022-10-06T14:05:32.650Z,102450.19
2022-10-06T14:08:15.315Z,102465.38
2022-10-06T14:10:49.573Z,102457.91
2022-10-06T14:13:21.739Z,102458.56
2022-10-06T14:15:53.000Z,102461.34
2022-10-06T14:18:29.055Z,102459.00
2022-10-06T14:20:58.629Z,102470.44
2022-10-06T14:23:45.129Z,102469.31
2022-10-06T14:26:15.640Z,102476.00
2022-10-06T14:28:48.378Z,102476.31
2022-10-06T14:31:17.687Z,102478.06
2022-10-06T14:33:48.552Z,102472.63
2022-10-06T14:36:20.558Z,102473.44
2022-10-06T14:38:52.816Z,102475.59
2022-10-06T14:41:24.876Z,102485.13
2022-10-06T14:43:54.670Z,102484.25
2022-10-06T14:46:25.080Z,102483.38
2022-10-06T14:48:54.427Z,102480.41
2022-10-06T14:51:25.896Z,102479.94
2022-10-06T14:53:57.866Z,102481.03
2022-10-06T14:56:31.650Z,102483.91
2022-10-06T14:59:02.249Z,102485.59
2022-10-06T15:01:32.012Z,102479.22
2022-10-06T15:04:04.986Z,102483.59
2022-10-06T15:06:51.709Z,102477.25
2022-10-06T15:09:22.252Z,102476.16
2022-10-06T15:11:51.908Z,102473.03
2022-10-06T15:14:22.367Z,102475.31
2022-10-06T15:16:51.965Z,102481.94
2022-10-06T15:19:22.103Z,102472.44
2022-10-06T15:21:51.071Z,102470.16
2022-10-06T15:24:22.114Z,102486.97
2022-10-06T15:27:08.832Z,102486.72
2022-10-06T15:29:37.813Z,102492.25
2022-10-06T15:32:07.188Z,102488.75
2022-10-06T15:34:37.574Z,102492.97
2022-10-06T15:37:06.998Z,102482.78
2022-10-06T15:39:38.532Z,102489.97
2022-10-06T15:42:08.588Z,102492.13
2022-10-06T15:44:37.902Z,102499.09
2022-10-06T15:47:07.919Z,102499.09
2022-10-06T15:49:40.371Z,102499.59
2022-10-06T15:52:12.113Z,102499.94
2022-10-06T15:54:43.708Z,102503.41
2022-10-06T15:57:19.496Z,102500.78
2022-10-06T15:59:49.624Z,102505.31
2022-10-06T16:02:20.373Z,102497.38
2022-10-06T16:05:17.306Z,102502.50
2022-10-06T16:07:46.219Z,102503.59
2022-10-06T16:10:16.628Z,102510.06
2022-10-06T16:12:45.980Z,102508.97
2022-10-06T16:15:14.950Z,102511.31
2022-10-06T16:17:43.886Z,102512.66
2022-10-06T16:20:12.793Z,102514.44
2022-10-06T16:22:42.243Z,102514.09
2022-10-06T16:25:11.489Z,102507.44
2022-10-06T16:27:41.805Z,102515.75
2022-10-06T16:30:12.234Z,102508.53
2022-10-06T16:32:41.489Z,102507.78
2022-10-06T16:35:14.772Z,102513.88
2022-10-06T16:37:49.759Z,102513.81
2022-10-06T16:40:18.933Z,102519.22
2022-10-06T16:42:49.356Z,102518.31
2022-10-06T16:45:18.357Z,102514.09
2022-10-06T16:47:47.267Z,102522.00
2022-10-06T16:50:16.386Z,102526.56
2022-10-06T16:52:45.330Z,102527.19
2022-10-06T16:55:14.428Z,102530.88
2022-10-06T16:57:43.417Z,102538.81
2022-10-06T17:00:16.164Z,102541.38
2022-10-06T17:02:45.113Z,102540.84
2022-10-06T17:05:14.144Z,102536.22
2022-10-06T17:07:43.078Z,102547.59
2022-10-06T17:10:20.857Z,102547.78
2022-10-06T17:12:50.216Z,102556.66
2022-10-06T17:15:20.479Z,102549.91
2022-10-06T17:17:49.397Z,102550.63
2022-10-06T17:20:18.305Z,102547.72
2022-10-06T17:22:47.337Z,102542.31
2022-10-06T17:25:16.489Z,102543.59
2022-10-06T17:27:45.425Z,102556.50
2022-10-06T17:30:15.352Z,102558.97
2022-10-06T17:32:46.976Z,102556.03
2022-10-06T17:35:15.987Z,102554.41
2022-10-06T17:37:45.440Z,102558.94
2022-10-06T17:40:14.410Z,102557.13
2022-10-06T17:42:43.705Z,102552.47
2022-10-06T17:45:12.862Z,102551.41
2022-10-06T17:47:42.082Z,102550.03
2022-10-06T17:50:12.441Z,102563.16
2022-10-06T17:52:41.826Z,102560.91
2022-10-06T17:55:14.882Z,102557.09
2022-10-06T17:57:43.806Z,102559.75
2022-10-06T18:00:15.214Z,102563.09
2022-10-06T18:02:44.739Z,102569.06
2022-10-06T18:05:15.986Z,102568.50
2022-10-06T18:07:45.579Z,102559.19
2022-10-06T18:10:36.274Z,102561.66
2022-10-06T18:13:06.084Z,102567.03
2022-10-06T18:15:37.179Z,102561.50
2022-10-06T18:18:06.495Z,102563.69
2022-10-06T18:20:40.131Z,102557.56
2022-10-06T18:23:09.515Z,102558.06
2022-10-06T18:25:38.422Z,102567.88
2022-10-06T18:28:07.378Z,102560.34
2022-10-06T18:30:36.582Z,102557.19
2022-10-06T18:36:15.256Z,102559.44
2022-10-06T18:38:46.924Z,102562.34
2022-10-06T18:41:18.960Z,102556.59
2022-10-06T18:43:48.076Z,102563.28
2022-10-06T18:46:36.059Z,102573.47
2022-10-06T18:49:10.535Z,102570.50
2022-10-06T18:51:44.110Z,102566.56
2022-10-06T18:54:17.820Z,102566.81
2022-10-06T18:56:51.732Z,102570.00
2022-10-06T18:59:23.335Z,102570.44
2022-10-06T19:01:52.948Z,102566.78
2022-10-06T19:04:23.764Z,102562.78
2022-10-06T19:06:56.497Z,102560.72
2022-10-06T19:09:26.394Z,102566.72
2022-10-06T19:11:59.958Z,102558.09
2022-10-06T19:14:31.561Z,102562.31
2022-10-06T19:17:03.261Z,102570.75
2022-10-06T19:19:32.898Z,102573.00
2022-10-06T19:22:05.154Z,102572.75
2022-10-06T19:24:36.982Z,102577.91
2022-10-06T19:27:11.552Z,102587.19
2022-10-06T19:29:45.335Z,102583.16
2022-10-06T19:32:18.760Z,102590.56
2022-10-06T19:34:48.432Z,102589.59
2022-10-06T19:37:19.270Z,102581.22
2022-10-06T19:39:50.747Z,102582.16
2022-10-06T19:42:38.505Z,102583.84
2022-10-06T19:45:09.570Z,102591.28
2022-10-06T19:47:38.634Z,102584.06
2022-10-06T19:50:12.076Z,102582.94
2022-10-06T19:52:43.538Z,102582.16
2022-10-06T19:55:12.537Z,102582.16
2022-10-06T19:57:43.217Z,102591.72
2022-10-06T20:00:13.565Z,102585.16
2022-10-06T20:02:43.992Z,102588.03
2022-10-06T20:05:15.074Z,102590.00
2022-10-06T20:07:47.495Z,102588.41
2022-10-06T20:10:16.922Z,102591.38
2022-10-06T20:12:46.296Z,102583.31
2022-10-06T20:15:15.319Z,102588.41
2022-10-06T20:17:45.522Z,102596.44
2022-10-06T20:20:15.194Z,102585.38
2022-10-06T20:22:45.798Z,102594.94
2022-10-06T20:25:14.913Z,102594.84
2022-10-06T20:27:44.913Z,102593.66
2022-10-06T20:30:14.546Z,102591.56
2022-10-06T20:32:43.526Z,102591.06
2022-10-06T20:35:14.934Z,102601.91
2022-10-06T20:37:45.757Z,102595.41
2022-10-06T20:40:32.734Z,102587.81
2022-10-06T20:43:01.826Z,102599.00
2022-10-06T20:45:30.872Z,102597.28
2022-10-06T20:48:00.187Z,102592.66
2022-10-06T20:50:31.208Z,102590.69
2022-10-06T20:53:01.556Z,102586.63
2022-10-06T20:55:30.548Z,102593.56
2022-10-06T20:57:59.567Z,102594.00
2022-10-06T21:00:28.534Z,102594.44
2022-10-06T21:02:57.641Z,102595.84
2022-10-06T21:05:26.643Z,102600.56
2022-10-06T21:07:55.643Z,102594.81
2022-10-06T21:10:25.944Z,102597.25
2022-10-06T21:12:55.804Z,102589.81
2022-10-06T21:15:24.983Z,102596.72
2022-10-06T21:17:53.969Z,102589.81
2022-10-06T21:20:23.020Z,102589.47
2022-10-06T21:22:52.657Z,102586.16
2022-10-06T21:25:21.607Z,102584.63
2022-10-06T21:27:51.939Z,102581.56
2022-10-06T21:30:20.908Z,102582.16
2022-10-06T21:32:49.917Z,102581.94
2022-10-06T21:35:18.881Z,102583.06
2022-10-06T21:37:47.855Z,102583.53
2022-10-06T21:40:16.929Z,102575.28
2022-10-06T21:42:45.934Z,102583.91
2022-10-06T21:45:16.406Z,102580.09
2022-10-06T21:47:46.303Z,102576.38
2022-10-06T21:50:15.735Z,102576.13
2022-10-06T21:52:44.681Z,102575.47
2022-10-06T21:55:13.727Z,102568.91
2022-10-06T21:57:42.976Z,102569.81
2022-10-06T22:00:13.666Z,102568.91
2022-10-06T22:02:44.095Z,102559.34
2022-10-06T22:05:13.130Z,102554.63
2022-10-06T22:07:42.487Z,102554.69
2022-10-06T22:10:11.666Z,102554.19
2022-10-06T22:12:40.623Z,102555.94
2022-10-06T22:15:10.135Z,102555.78
2022-10-06T22:17:39.100Z,102557.91
2022-10-06T22:20:10.683Z,102561.88
2022-10-06T22:22:39.677Z,102552.50
2022-10-06T22:25:09.016Z,102554.69
2022-10-06T22:27:37.991Z,102551.88
2022-10-06T22:30:08.200Z,102553.25
2022-10-06T22:32:37.164Z,102561.09
2022-10-06T22:35:07.172Z,102544.81
2022-10-06T22:37:37.477Z,102556.66
2022-10-06T22:40:07.880Z,102551.41
2022-10-06T22:42:36.910Z,102544.19
2022-10-06T22:45:07.004Z,102543.72
2022-10-06T22:47:35.987Z,102539.41
2022-10-06T22:50:05.742Z,102543.28
2022-10-06T22:52:36.080Z,102525.25
2022-10-06T22:55:05.511Z,102536.53
2022-10-06T22:57:34.584Z,102527.47
2022-10-06T23:00:03.606Z,102527.63
2022-10-06T23:02:33.343Z,102526.03
2022-10-06T23:05:02.355Z,102522.38
2022-10-06T23:07:31.288Z,102527.19
2022-10-06T23:10:01.634Z,102528.63
2022-10-06T23:12:30.630Z,102521.09
2022-10-06T23:14:59.582Z,102522.59
2022-10-06T23:17:28.533Z,102527.28
2022-10-06T23:19:57.535Z,102517.53
2022-10-06T23:22:26.477Z,102510.78
2022-10-06T23:24:55.405Z,102509.75
2022-10-06T23:27:25.771Z,102506.78
2022-10-06T23:29:54.851Z,102503.63
2022-10-06T23:32:24.339Z,102507.28
2022-10-06T23:34:53.303Z,102510.66
2022-10-06T23:37:22.420Z,102499.75
2022-10-06T23:39:51.370Z,102508.25
2022-10-06T23:42:20.375Z,102498.84
2022-10-06T23:44:50.673Z,102500.53
2022-10-06T23:47:19.644Z,102495.22
2022-10-06T23:49:48.639Z,102496.31
2022-10-06T23:52:17.647Z,102503.84
2022-10-06T23:54:46.706Z,102501.03
2022-10-06T23:57:15.651Z,102495.44
2022-10-06T23:59:44.614Z,102499.78
